Time;durP1;ratioP1;P1;durP2;ratioP2;P2;SDS_P1;SDS_P2;PMS_P1;PMS_P2;Temp;Humidity;BMP_temperature;BMP_pressure;BME280_temperature;BME280_humidity;BME280_pressure;Samples;Min_cycle;Max_cycle;Signal;HPM_P1;HPM_P2
2024/02/13 00:02:52;;;;;;;5.20;3.20;;;;;;;7.97;81.51;99186.30;134112;1265;106353;-79
2024/02/13 00:05:58;;;;;;;4.20;2.70;;;;;;;8.00;81.41;99188.95;134122;1265;108798;-78
2024/02/13 00:09:04;;;;;;;3.60;2.80;;;;;;;8.01;81.52;99196.79;134134;1264;108731;-80
2024/02/13 00:12:11;;;;;;;4.20;3.00;;;;;;;8.06;81.69;99198.73;134121;1266;106889;-79
2024/02/13 00:15:20;;;;;;;5.90;3.50;;;;;;;8.08;81.69;99197.98;134119;1265;108677;-79
2024/02/13 00:18:25;;;;;;;4.60;3.50;;;;;;;8.06;81.61;99202.79;134112;1265;108503;-79
2024/02/13 00:21:31;;;;;;;5.50;3.80;;;;;;;8.03;81.85;99210.52;134111;1266;108452;-79
2024/02/13 00:24:37;;;;;;;6.30;3.70;;;;;;;8.01;81.88;99213.73;134096;1266;108584;-79
2024/02/13 00:28:32;;;;;;;5.40;3.40;;;;;;;8.00;81.90;99217.95;134114;1265;106568;-80
2024/02/13 00:31:44;;;;;;;5.00;3.40;;;;;;;7.99;82.04;99214.91;134090;1265;107313;-79
2024/02/13 00:34:49;;;;;;;6.60;4.20;;;;;;;8.02;82.04;99222.54;134167;1265;107024;-78
2024/02/13 00:37:55;;;;;;;5.10;3.60;;;;;;;8.03;82.01;99223.97;134104;1265;108718;-79
2024/02/13 00:41:04;;;;;;;4.40;3.20;;;;;;;7.98;81.94;99227.49;134111;1266;108686;-79
2024/02/13 00:44:11;;;;;;;4.80;3.50;;;;;;;7.98;81.86;99230.39;134118;1265;106858;-79
2024/02/13 00:47:18;;;;;;;5.20;3.20;;;;;;;7.95;81.70;99234.08;134126;1266;108382;-79
2024/02/13 00:50:24;;;;;;;5.40;3.50;;;;;;;7.89;81.90;99237.40;134155;1265;108685;-79
2024/02/13 00:53:29;;;;;;;4.10;3.00;;;;;;;7.83;81.96;99241.34;134146;1264;108160;-79
2024/02/13 00:56:35;;;;;;;6.20;3.10;;;;;;;7.78;81.92;99244.98;134118;1265;106476;-80
2024/02/13 00:59:43;;;;;;;6.20;3.20;;;;;;;7.77;81.58;99250.92;134126;1266;108939;-79
2024/02/13 01:02:48;;;;;;;5.10;3.50;;;;;;;7.75;81.65;99252.41;134147;1265;108728;-80
2024/02/13 01:05:54;;;;;;;5.20;3.40;;;;;;;7.74;81.20;99251.99;134152;1264;107822;-79
2024/02/13 01:09:00;;;;;;;4.80;3.40;;;;;;;7.73;81.50;99255.36;134161;1265;108670;-80
2024/02/13 01:12:06;;;;;;;6.80;3.10;;;;;;;7.71;81.18;99259.10;134097;1265;106829;-78
2024/02/13 01:15:12;;;;;;;4.40;3.40;;;;;;;7.69;81.15;99259.07;134110;1265;107637;-78
2024/02/13 01:18:17;;;;;;;5.70;3.10;;;;;;;7.63;81.04;99258.98;134103;1265;106606;-79
2024/02/13 01:21:23;;;;;;;4.60;2.70;;;;;;;7.55;81.10;99257.86;134061;1265;106711;-78
2024/02/13 01:24:31;;;;;;;4.60;3.00;;;;;;;7.50;81.36;99257.67;134106;1266;108552;-80
2024/02/13 01:27:37;;;;;;;4.60;3.10;;;;;;;7.50;81.35;99258.20;134111;1264;108230;-80
2024/02/13 01:30:43;;;;;;;4.80;3.00;;;;;;;7.58;81.43;99261.64;134127;1265;108771;-80
2024/02/13 01:33:48;;;;;;;4.40;2.80;;;;;;;7.65;81.41;99260.18;134128;1265;108657;-80
2024/02/13 01:36:57;;;;;;;4.40;3.20;;;;;;;7.67;81.30;99266.42;134154;1265;107565;-80
2024/02/13 01:40:05;;;;;;;6.50;3.20;;;;;;;7.67;81.20;99271.47;134107;1266;106677;-79
2024/02/13 01:43:11;;;;;;;3.90;3.20;;;;;;;7.66;81.31;99274.09;134100;1266;108670;-79
2024/02/13 01:46:19;;;;;;;6.90;3.50;;;;;;;7.61;81.28;99277.77;134095;1266;107084;-81
2024/02/13 01:49:28;;;;;;;4.50;3.20;;;;;;;7.55;81.43;99284.64;134096;1264;108311;-80
2024/02/13 01:52:34;;;;;;;7.00;3.00;;;;;;;7.45;81.29;99288.80;134098;1266;108406;-80
2024/02/13 01:55:41;;;;;;;5.30;3.30;;;;;;;7.40;81.46;99296.52;134024;1265;108703;-80
2024/02/13 01:58:47;;;;;;;6.80;4.00;;;;;;;7.47;81.71;99298.84;134074;1265;107781;-80
2024/02/13 02:01:54;;;;;;;5.40;3.80;;;;;;;7.52;81.43;99304.08;134004;1265;106814;-80
2024/02/13 02:05:00;;;;;;;7.40;3.90;;;;;;;7.43;81.62;99297.45;134105;1266;106496;-80
2024/02/13 02:08:07;;;;;;;6.40;4.50;;;;;;;7.39;81.76;99302.99;134080;1265;107635;-80
2024/02/13 02:11:13;;;;;;;5.70;3.90;;;;;;;7.40;81.89;99305.23;134107;1266;108687;-80
2024/02/13 02:14:22;;;;;;;6.40;4.00;;;;;;;7.41;81.70;99310.45;134079;1265;108717;-80
2024/02/13 02:17:27;;;;;;;5.10;3.30;;;;;;;7.42;81.91;99316.18;134079;1265;108620;-80
2024/02/13 02:20:33;;;;;;;5.70;4.30;;;;;;;7.43;82.18;99323.53;134116;1265;108831;-81
2024/02/13 02:23:38;;;;;;;6.80;4.30;;;;;;;7.45;82.08;99326.23;134112;1265;108778;-80
2024/02/13 02:26:44;;;;;;;5.50;4.00;;;;;;;7.48;81.95;99330.23;134126;1265;107792;-79
2024/02/13 02:29:49;;;;;;;6.40;4.20;;;;;;;7.45;82.28;99331.43;134131;1265;108777;-80
2024/02/13 02:32:55;;;;;;;6.00;3.90;;;;;;;7.43;82.17;99337.63;134137;1264;108790;-80
2024/02/13 02:36:00;;;;;;;6.80;4.20;;;;;;;7.39;82.11;99335.80;134106;1265;108492;-80
2024/02/13 02:39:06;;;;;;;6.20;3.80;;;;;;;7.35;82.06;99342.15;134098;1265;108811;-80
2024/02/13 02:42:13;;;;;;;5.00;3.10;;;;;;;7.30;81.99;99344.26;134095;1265;108904;-80
2024/02/13 02:45:18;;;;;;;5.60;3.70;;;;;;;7.28;82.22;99350.62;134131;1266;107623;-80
2024/02/13 02:48:24;;;;;;;5.50;3.50;;;;;;;7.27;82.20;99354.27;134091;1265;108613;-79
2024/02/13 02:51:30;;;;;;;6.60;4.00;;;;;;;7.30;82.36;99351.36;134123;1265;108712;-79
2024/02/13 02:54:36;;;;;;;5.10;3.70;;;;;;;7.31;82.04;99355.16;134108;1266;106903;-79
2024/02/13 02:57:42;;;;;;;7.30;4.50;;;;;;;7.30;82.09;99356.28;134082;1266;108642;-80
2024/02/13 03:00:48;;;;;;;5.70;3.90;;;;;;;7.26;82.00;99350.84;134140;1267;107200;-80
2024/02/13 03:03:54;;;;;;;5.50;3.40;;;;;;;7.19;82.11;99358.08;134109;1265;108478;-80
2024/02/13 03:06:59;;;;;;;6.40;3.80;;;;;;;7.15;82.19;99357.81;134125;1265;108749;-80
2024/02/13 03:10:08;;;;;;;5.40;3.60;;;;;;;7.10;82.27;99366.09;134086;1266;106453;-80
2024/02/13 03:13:14;;;;;;;6.40;3.90;;;;;;;7.08;82.24;99368.16;134119;1265;108686;-79
2024/02/13 03:16:19;;;;;;;6.60;3.90;;;;;;;7.11;82.26;99371.64;134127;1266;107312;-80
2024/02/13 03:19:26;;;;;;;6.40;4.10;;;;;;;7.06;82.28;99377.70;134070;1265;106965;-79
2024/02/13 03:22:35;;;;;;;6.30;4.00;;;;;;;7.08;82.15;99376.86;134126;1266;107834;-79
2024/02/13 03:25:41;;;;;;;6.50;4.40;;;;;;;7.04;82.17;99385.70;134066;1265;106516;-81
2024/02/13 03:28:47;;;;;;;5.60;3.70;;;;;;;6.99;82.27;99390.47;134083;1266;106428;-79
2024/02/13 03:31:52;;;;;;;5.90;4.00;;;;;;;7.01;82.43;99399.34;134102;1266;109246;-80
2024/02/13 03:34:58;;;;;;;8.00;4.50;;;;;;;7.07;82.10;99404.57;134107;1266;108742;-80
2024/02/13 03:38:04;;;;;;;7.40;4.50;;;;;;;7.07;82.13;99410.02;134046;1265;106926;-81
2024/02/13 03:41:09;;;;;;;139.40;53.00;;;;;;;7.07;82.15;99415.34;134097;1266;108601;-81
2024/02/13 03:44:15;;;;;;;228.20;91.80;;;;;;;7.07;82.00;99418.64;134113;1266;108653;-82
2024/02/13 03:47:22;;;;;;;297.10;83.50;;;;;;;7.07;81.97;99422.45;133934;1266;216789;-81
2024/02/13 03:50:28;;;;;;;264.50;83.00;;;;;;;7.03;82.21;99428.99;134082;1266;107052;-82
2024/02/13 03:53:35;;;;;;;39.70;15.40;;;;;;;6.96;82.01;99434.42;134000;1265;106402;-84
2024/02/13 03:56:43;;;;;;;213.70;65.70;;;;;;;6.87;81.83;99432.91;134017;1266;108389;-86
2024/02/13 03:59:49;;;;;;;154.80;54.30;;;;;;;6.81;81.89;99431.47;134069;1266;107197;-87
2024/02/13 04:02:54;;;;;;;219.40;76.20;;;;;;;6.74;81.79;99436.25;134119;1266;108687;-86
2024/02/13 04:06:00;;;;;;;56.00;21.40;;;;;;;6.65;82.03;99434.42;134111;1266;109181;-86
2024/02/13 04:09:07;;;;;;;26.50;12.10;;;;;;;6.52;81.72;99439.11;134149;1266;108470;-86
2024/02/13 04:12:12;;;;;;;45.40;17.30;;;;;;;6.41;82.05;99446.68;134110;1266;108776;-86
2024/02/13 04:15:18;;;;;;;177.30;61.60;;;;;;;6.36;82.07;99444.16;134118;1266;108556;-86
2024/02/13 04:18:24;;;;;;;30.50;13.60;;;;;;;6.31;82.37;99447.23;134106;1267;109173;-86
2024/02/13 04:21:30;;;;;;;10.50;5.80;;;;;;;6.29;82.24;99456.41;134096;1266;108675;-86
2024/02/13 04:24:35;;;;;;;16.50;8.60;;;;;;;6.28;82.39;99452.33;133982;1267;107578;-86
2024/02/13 04:27:43;;;;;;;24.50;11.60;;;;;;;6.31;82.60;99460.28;134143;1264;107964;-86
2024/02/13 04:30:49;;;;;;;21.60;11.30;;;;;;;6.32;82.33;99464.33;134188;1264;108591;-86
2024/02/13 04:33:55;;;;;;;51.00;22.70;;;;;;;6.32;82.38;99469.77;134127;1265;108831;-86
2024/02/13 04:37:02;;;;;;;69.00;29.50;;;;;;;6.32;82.46;99475.96;134106;1265;108491;-86
2024/02/13 04:40:10;;;;;;;116.00;48.20;;;;;;;6.35;82.64;99481.73;134133;1266;108631;-86
2024/02/13 04:43:16;;;;;;;25.90;11.90;;;;;;;6.38;82.38;99488.45;134076;1266;108291;-86
2024/02/13 04:46:24;;;;;;;229.70;87.10;;;;;;;6.38;82.53;99492.39;134110;1265;107753;-86
2024/02/13 04:49:30;;;;;;;55.00;22.20;;;;;;;6.35;82.98;99496.13;134055;1265;107803;-86
2024/02/13 04:52:35;;;;;;;41.50;17.20;;;;;;;6.35;82.80;99493.70;134137;1266;109497;-86
2024/02/13 04:55:41;;;;;;;282.00;119.20;;;;;;;6.36;82.72;99505.58;134135;1265;106967;-86
2024/02/13 04:58:47;;;;;;;96.80;34.40;;;;;;;6.31;83.07;99502.70;134092;1265;107257;-86
2024/02/13 05:01:53;;;;;;;196.70;71.10;;;;;;;6.29;83.33;99511.18;134125;1265;107722;-85
2024/02/13 05:08:22;;;;;;;350.20;126.30;;;;;;;6.30;83.44;99525.08;134030;1266;108626;-86
2024/02/13 05:11:29;;;;;;;63.90;23.90;;;;;;;6.33;83.25;99524.67;134029;1266;107683;-86
2024/02/13 05:14:34;;;;;;;121.20;46.10;;;;;;;6.31;83.46;99529.76;134060;1266;106664;-86
2024/02/13 05:17:40;;;;;;;88.70;32.10;;;;;;;6.22;83.63;99540.42;134039;1265;108748;-85
2024/02/13 05:20:47;;;;;;;90.40;36.10;;;;;;;6.16;83.74;99542.45;134022;1267;107711;-85
2024/02/13 05:23:53;;;;;;;68.70;24.90;;;;;;;6.15;83.98;99549.11;134024;1266;106870;-86
2024/02/13 05:26:59;;;;;;;55.80;19.40;;;;;;;6.15;83.86;99557.02;134060;1266;108919;-86
2024/02/13 05:30:05;;;;;;;126.10;37.10;;;;;;;6.19;83.69;99559.45;134067;1266;108860;-86
2024/02/13 05:33:12;;;;;;;26.40;11.90;;;;;;;6.21;83.74;99567.20;134032;1267;109811;-86
2024/02/13 05:36:17;;;;;;;119.30;37.00;;;;;;;6.19;83.82;99567.95;134027;1266;107812;-86
2024/02/13 05:39:23;;;;;;;425.40;121.60;;;;;;;6.20;83.89;99571.35;134097;1266;108660;-85
2024/02/13 05:42:29;;;;;;;68.10;23.00;;;;;;;6.20;83.83;99579.50;134117;1265;108621;-86
2024/02/13 05:45:35;;;;;;;50.50;19.70;;;;;;;6.16;83.97;99586.19;134106;1266;107842;-86
2024/02/13 05:48:42;;;;;;;65.90;22.70;;;;;;;6.16;84.24;99591.52;134088;1267;107811;-83
2024/02/13 05:51:48;;;;;;;294.20;88.90;;;;;;;6.19;84.17;99596.88;134098;1267;107037;-85
2024/02/13 05:54:53;;;;;;;158.40;46.00;;;;;;;6.23;84.10;99603.65;134068;1265;108641;-85
2024/02/13 05:57:59;;;;;;;455.60;149.20;;;;;;;6.22;84.20;99614.30;134119;1267;107771;-85
2024/02/13 06:01:05;;;;;;;256.60;82.40;;;;;;;6.19;84.18;99620.75;134104;1266;107694;-85
2024/02/13 06:04:11;;;;;;;123.10;45.50;;;;;;;6.16;84.36;99618.01;134078;1266;106779;-86
2024/02/13 06:07:16;;;;;;;261.50;109.60;;;;;;;6.21;84.36;99629.02;134084;1265;108548;-85
2024/02/13 06:10:22;;;;;;;80.60;36.30;;;;;;;6.19;84.53;99638.90;134086;1266;107164;-85
2024/02/13 06:13:28;;;;;;;56.20;26.60;;;;;;;6.21;84.52;99641.88;134088;1264;108607;-85
2024/02/13 06:16:33;;;;;;;61.00;32.40;;;;;;;6.26;84.19;99643.41;134123;1267;108770;-85
2024/02/13 06:19:39;;;;;;;52.40;27.00;;;;;;;6.27;84.43;99652.44;134117;1264;106635;-85
2024/02/13 06:22:44;;;;;;;164.70;75.90;;;;;;;6.25;84.61;99662.04;134113;1266;108614;-85
2024/02/13 06:25:50;;;;;;;101.20;46.90;;;;;;;6.20;84.58;99665.80;134099;1265;107227;-85
2024/02/13 06:28:56;;;;;;;73.90;39.30;;;;;;;6.24;85.08;99674.64;134111;1267;108569;-85
2024/02/13 06:32:01;;;;;;;65.10;36.80;;;;;;;6.23;85.09;99679.00;134093;1265;108528;-85
2024/02/13 06:35:08;;;;;;;21.80;13.20;;;;;;;6.26;85.14;99682.59;134077;1267;107127;-81
2024/02/13 06:38:14;;;;;;;18.20;11.70;;;;;;;6.25;85.03;99686.59;134097;1266;106616;-80
2024/02/13 06:41:22;;;;;;;18.90;12.80;;;;;;;6.19;85.12;99689.59;134124;1267;108721;-78
2024/02/13 06:44:30;;;;;;;15.50;10.70;;;;;;;6.11;85.39;99686.13;134102;1265;109351;-78
2024/02/13 06:47:36;;;;;;;16.00;10.00;;;;;;;6.12;85.43;99698.93;134103;1266;108683;-79
2024/02/13 06:50:42;;;;;;;29.20;19.80;;;;;;;6.12;85.82;99700.16;134094;1267;108658;-78
2024/02/13 06:53:48;;;;;;;22.30;15.00;;;;;;;6.22;85.59;99704.38;134136;1266;108654;-79
2024/02/13 06:56:54;;;;;;;18.40;11.30;;;;;;;6.27;85.55;99708.62;134154;1265;108121;-79
2024/02/13 06:59:59;;;;;;;16.70;10.90;;;;;;;6.28;85.45;99714.80;134146;1266;107734;-79
2024/02/13 07:03:05;;;;;;;18.40;11.60;;;;;;;6.34;85.55;99721.67;134087;1266;106595;-79
2024/02/13 07:06:11;;;;;;;16.10;9.60;;;;;;;6.41;85.48;99722.75;134097;1267;108749;-79
2024/02/13 07:09:17;;;;;;;15.90;10.60;;;;;;;6.48;85.42;99726.89;134108;1266;108673;-79
2024/02/13 07:12:23;;;;;;;17.20;10.80;;;;;;;6.49;85.30;99734.25;134106;1267;108735;-79
2024/02/13 07:15:28;;;;;;;18.50;10.40;;;;;;;6.53;85.33;99738.19;134078;1267;108722;-79
2024/02/13 07:18:34;;;;;;;15.90;10.60;;;;;;;6.56;85.31;99743.31;134130;1265;108564;-79
2024/02/13 07:21:40;;;;;;;16.40;10.70;;;;;;;6.55;85.28;99750.48;134104;1266;107538;-79
2024/02/13 07:24:45;;;;;;;15.20;9.90;;;;;;;6.57;85.54;99755.94;134091;1265;108548;-79
2024/02/13 07:27:52;;;;;;;23.50;13.30;;;;;;;6.60;85.30;99767.02;134080;1267;106784;-79
2024/02/13 07:30:58;;;;;;;212.10;89.70;;;;;;;6.60;85.32;99766.67;134115;1265;108748;-79
2024/02/13 07:34:04;;;;;;;61.10;28.50;;;;;;;6.59;85.42;99771.17;134146;1265;108444;-79
2024/02/13 07:37:10;;;;;;;89.90;37.20;;;;;;;6.59;85.63;99776.43;134103;1265;107442;-79
2024/02/13 07:40:16;;;;;;;124.20;49.30;;;;;;;6.59;85.45;99776.61;134096;1267;107623;-79
2024/02/13 07:43:22;;;;;;;51.10;25.50;;;;;;;6.65;85.60;99782.64;134099;1267;108477;-79
2024/02/13 07:46:27;;;;;;;22.70;12.90;;;;;;;6.64;85.45;99787.31;134141;1267;108847;-79
2024/02/13 07:49:33;;;;;;;238.10;78.60;;;;;;;6.57;85.68;99783.91;134087;1266;108421;-79
2024/02/13 07:52:39;;;;;;;499.90;195.30;;;;;;;6.58;85.77;99785.27;134123;1265;108405;-79
2024/02/13 07:55:45;;;;;;;81.80;34.30;;;;;;;6.65;85.71;99794.24;134137;1266;107387;-79
2024/02/13 07:58:50;;;;;;;23.20;13.80;;;;;;;6.73;85.74;99798.20;134083;1266;108427;-79
2024/02/13 08:01:57;;;;;;;26.90;14.90;;;;;;;6.75;85.53;99801.60;134125;1266;107889;-79
2024/02/13 08:05:04;;;;;;;20.60;12.40;;;;;;;6.69;85.72;99804.70;133995;1266;108748;-79
2024/02/13 08:08:10;;;;;;;52.90;31.30;;;;;;;6.65;85.88;99802.20;134059;1266;107226;-79
2024/02/13 08:11:16;;;;;;;25.80;16.60;;;;;;;6.74;85.73;99806.20;134137;1267;106759;-79
2024/02/13 08:14:22;;;;;;;24.20;15.80;;;;;;;6.85;85.79;99808.05;134109;1265;107669;-79
2024/02/13 08:17:28;;;;;;;161.40;75.30;;;;;;;6.99;85.41;99811.19;134138;1267;106315;-79
2024/02/13 08:20:33;;;;;;;59.80;25.90;;;;;;;7.06;85.19;99816.17;134121;1267;108215;-79
2024/02/13 08:23:39;;;;;;;317.50;115.50;;;;;;;7.11;85.05;99818.23;134011;1265;107364;-79
2024/02/13 08:26:45;;;;;;;166.80;61.20;;;;;;;7.20;84.76;99825.04;134107;1266;108707;-86
2024/02/13 08:29:50;;;;;;;90.20;36.70;;;;;;;7.17;84.27;99829.37;134112;1266;106624;-80
2024/02/13 08:32:56;;;;;;;19.10;12.10;;;;;;;7.08;84.36;99835.46;134093;1267;108571;-80
2024/02/13 08:36:02;;;;;;;105.30;46.80;;;;;;;6.99;84.66;99834.18;134050;1266;108774;-78
2024/02/13 08:39:08;;;;;;;114.30;51.40;;;;;;;7.04;84.63;99836.03;134039;1265;108689;-76
2024/02/13 08:42:13;;;;;;;25.60;14.30;;;;;;;7.10;84.05;99841.65;134051;1266;108599;-77
2024/02/13 08:45:20;;;;;;;26.40;19.90;;;;;;;7.05;84.14;99839.30;134066;1266;107191;-76
2024/02/13 08:48:25;;;;;;;28.50;20.60;;;;;;;7.04;84.57;99843.04;134028;1266;108800;-81
2024/02/13 08:51:31;;;;;;;21.60;12.40;;;;;;;7.06;84.18;99842.90;134023;1266;108791;-82
2024/02/13 08:54:37;;;;;;;23.50;15.10;;;;;;;7.07;84.48;99846.66;134020;1266;107217;-77
2024/02/13 08:57:43;;;;;;;21.00;12.90;;;;;;;7.10;84.54;99845.05;134106;1265;108540;-77
2024/02/13 09:00:49;;;;;;;18.80;12.70;;;;;;;7.23;84.66;99853.92;134121;1267;107907;-77
2024/02/13 09:03:55;;;;;;;21.10;14.20;;;;;;;7.35;84.57;99860.08;134118;1265;108682;-77
2024/02/13 09:07:00;;;;;;;17.60;12.30;;;;;;;7.53;84.44;99858.89;134092;1266;108987;-77
2024/02/13 09:10:11;;;;;;;18.50;11.00;;;;;;;7.56;83.93;99872.43;134106;1265;107586;-77
2024/02/13 09:13:17;;;;;;;16.80;10.60;;;;;;;7.51;83.46;99869.77;134099;1266;108458;-77
2024/02/13 09:16:23;;;;;;;15.80;9.70;;;;;;;7.47;83.37;99872.14;134129;1265;105370;-77
2024/02/13 09:19:28;;;;;;;15.40;10.50;;;;;;;7.45;83.29;99875.23;134148;1266;109437;-77
2024/02/13 09:22:35;;;;;;;17.80;10.90;;;;;;;7.55;83.95;99875.39;134139;1266;108746;-76
2024/02/13 09:25:40;;;;;;;15.60;10.50;;;;;;;7.64;83.33;99882.67;134128;1265;105983;-77
2024/02/13 09:28:46;;;;;;;17.90;10.00;;;;;;;7.62;82.36;99888.67;134138;1265;107358;-77
2024/02/13 09:31:53;;;;;;;15.10;10.70;;;;;;;7.53;82.93;99891.17;134134;1265;106637;-77
2024/02/13 09:34:59;;;;;;;16.20;10.70;;;;;;;7.46;82.56;99895.29;134107;1265;106555;-77
2024/02/13 09:38:06;;;;;;;16.30;10.90;;;;;;;7.38;82.80;99901.86;134109;1265;107357;-76
2024/02/13 09:41:13;;;;;;;16.60;10.90;;;;;;;7.38;82.86;99900.61;134106;1266;108828;-77
2024/02/13 09:44:18;;;;;;;25.00;14.80;;;;;;;7.46;83.11;99903.41;134041;1265;107838;-77
2024/02/13 09:47:24;;;;;;;17.40;10.30;;;;;;;7.57;82.05;99905.48;134164;1265;108736;-77
2024/02/13 09:50:37;;;;;;;26.10;16.80;;;;;;;7.61;81.94;99903.33;134133;1265;106467;-77
2024/02/13 09:53:44;;;;;;;16.10;10.70;;;;;;;7.67;81.25;99915.63;134141;1266;107793;-77
2024/02/13 09:56:51;;;;;;;15.20;9.50;;;;;;;7.65;80.67;99919.42;134124;1265;106657;-79
2024/02/13 10:00:01;;;;;;;13.60;8.70;;;;;;;7.59;81.10;99915.89;134111;1265;107073;-77
2024/02/13 10:03:07;;;;;;;11.70;7.20;;;;;;;7.63;81.88;99919.39;134089;1266;106423;-77
2024/02/13 10:06:13;;;;;;;11.90;8.80;;;;;;;7.75;81.24;99926.42;134053;1266;107258;-77
2024/02/13 10:09:20;;;;;;;12.00;8.10;;;;;;;7.77;80.91;99929.78;134044;1265;108750;-77
2024/02/13 10:12:25;;;;;;;14.10;8.30;;;;;;;7.79;80.12;99938.14;134059;1266;108251;-76
2024/02/13 10:15:40;;;;;;;14.30;9.30;;;;;;;7.78;80.23;99944.23;134068;1266;108176;-77
2024/02/13 10:18:45;;;;;;;16.10;9.10;;;;;;;7.81;80.15;99944.98;134048;1266;108546;-76
2024/02/13 10:21:53;;;;;;;23.50;15.40;;;;;;;7.87;80.33;99946.95;134027;1265;108769;-77
2024/02/13 10:25:00;;;;;;;14.00;9.30;;;;;;;7.97;80.24;99956.50;134080;1265;107608;-77
2024/02/13 10:28:09;;;;;;;15.70;9.10;;;;;;;7.91;79.09;99956.14;134106;1265;107615;-77
2024/02/13 10:31:24;;;;;;;12.00;8.10;;;;;;;7.85;78.90;99951.86;134121;1265;108685;-77
2024/02/13 10:34:30;;;;;;;23.80;14.30;;;;;;;7.90;79.38;99955.84;134097;1265;107696;-77
2024/02/13 10:37:36;;;;;;;149.20;75.20;;;;;;;8.08;80.49;99951.89;134090;1265;108669;-77
2024/02/13 10:40:43;;;;;;;23.60;13.30;;;;;;;8.28;79.34;99954.13;134105;1265;108782;-77
2024/02/13 10:43:52;;;;;;;14.50;9.00;;;;;;;8.31;77.81;99956.85;134140;1265;107708;-77
2024/02/13 10:47:00;;;;;;;21.20;11.80;;;;;;;8.24;77.16;99957.31;134134;1266;106417;-77
2024/02/13 10:50:08;;;;;;;68.20;35.70;;;;;;;8.24;77.70;99964.55;134107;1265;108795;-77
2024/02/13 10:53:15;;;;;;;82.00;40.20;;;;;;;8.20;77.56;99967.54;134123;1265;107647;-77
2024/02/13 10:56:23;;;;;;;27.80;15.20;;;;;;;8.14;76.72;99969.34;134099;1265;107346;-77
2024/02/13 10:59:30;;;;;;;10.80;6.90;;;;;;;8.15;77.04;99971.05;134099;1264;109223;-77
2024/02/13 11:02:37;;;;;;;30.50;17.40;;;;;;;8.11;77.24;99971.98;134079;1265;108698;-77
2024/02/13 11:05:43;;;;;;;17.60;10.20;;;;;;;7.97;75.21;99972.73;134130;1265;106737;-77
2024/02/13 11:08:49;;;;;;;10.40;6.60;;;;;;;7.77;74.78;99974.42;134097;1265;108678;-77
2024/02/13 11:11:56;;;;;;;11.60;6.60;;;;;;;7.69;74.53;99974.95;134131;1265;107178;-77
2024/02/13 11:15:10;;;;;;;12.40;7.60;;;;;;;7.68;73.58;99983.92;134119;1265;108455;-77
2024/02/13 11:18:18;;;;;;;10.90;7.40;;;;;;;7.78;74.62;99983.52;134126;1265;105888;-77
2024/02/13 11:21:26;;;;;;;10.20;6.40;;;;;;;7.89;74.71;99982.89;134107;1265;108739;-77
2024/02/13 11:24:42;;;;;;;9.20;5.90;;;;;;;7.91;73.55;99989.66;134111;1266;107154;-76
2024/02/13 11:27:49;;;;;;;10.60;6.70;;;;;;;7.84;73.95;99986.55;134152;1265;107582;-77
2024/02/13 11:30:55;;;;;;;17.30;10.20;;;;;;;7.69;73.31;100001.37;134127;1265;107943;-76
2024/02/13 11:34:05;;;;;;;14.20;6.70;;;;;;;7.51;73.50;100006.92;134059;1265;108604;-77
2024/02/13 11:37:26;;;;;;;11.00;5.60;;;;;;;7.40;74.69;100010.86;133978;1266;109503;-77
2024/02/13 11:40:33;;;;;;;12.60;7.90;;;;;;;7.34;73.83;100013.02;134029;1266;107686;-77
2024/02/13 11:43:39;;;;;;;12.50;7.90;;;;;;;7.31;74.23;100019.86;134119;1265;108250;-77
2024/02/13 11:46:52;;;;;;;9.50;5.60;;;;;;;7.33;74.00;100021.30;134127;1265;108558;-77
2024/02/13 11:49:57;;;;;;;10.60;6.00;;;;;;;7.38;73.55;100025.23;134121;1265;109745;-77
2024/02/13 11:53:04;;;;;;;9.30;5.50;;;;;;;7.35;72.80;100030.25;134135;1265;107800;-77
2024/02/13 11:56:12;;;;;;;11.10;6.00;;;;;;;7.43;72.77;100026.90;134125;1265;108983;-77
2024/02/13 11:59:19;;;;;;;9.30;5.80;;;;;;;7.50;73.25;100028.26;134125;1266;108761;-77
2024/02/13 12:02:28;;;;;;;12.50;5.40;;;;;;;7.54;72.08;100027.49;134098;1265;108962;-77
2024/02/13 12:05:34;;;;;;;9.10;5.20;;;;;;;7.51;71.85;100026.60;134044;1265;107503;-77
2024/02/13 12:08:41;;;;;;;96.10;40.30;;;;;;;7.58;71.80;100032.33;134078;1266;106779;-77
2024/02/13 12:11:47;;;;;;;21.10;8.40;;;;;;;7.77;71.73;100039.21;134041;1266;107301;-77
2024/02/13 12:14:53;;;;;;;11.10;6.10;;;;;;;7.93;69.77;100046.48;134048;1266;106473;-77
2024/02/13 12:18:00;;;;;;;30.50;13.40;;;;;;;7.96;68.28;100045.64;134076;1266;108702;-77
2024/02/13 12:21:07;;;;;;;203.30;78.10;;;;;;;7.92;68.64;100040.70;134010;1266;108649;-77
2024/02/13 12:24:13;;;;;;;36.20;15.80;;;;;;;7.95;70.87;100039.03;134081;1266;105875;-77
2024/02/13 12:27:19;;;;;;;35.30;14.60;;;;;;;7.97;71.12;100042.40;134066;1265;107521;-77
2024/02/13 12:30:26;;;;;;;137.40;67.70;;;;;;;7.91;69.68;100045.91;134067;1266;108740;-77
2024/02/13 12:33:32;;;;;;;98.30;49.10;;;;;;;7.95;70.84;100046.41;134049;1266;106459;-77
2024/02/13 12:36:38;;;;;;;17.90;9.90;;;;;;;7.94;70.25;100052.73;134075;1266;108824;-77
2024/02/13 12:39:45;;;;;;;11.00;6.30;;;;;;;7.83;68.39;100056.39;134101;1265;108676;-77
2024/02/13 12:42:54;;;;;;;16.80;9.20;;;;;;;7.62;68.83;100058.30;134106;1266;107865;-79
2024/02/13 12:46:02;;;;;;;62.40;34.70;;;;;;;7.46;68.26;100062.73;134125;1264;108435;-77
2024/02/13 12:49:10;;;;;;;11.10;6.20;;;;;;;7.35;69.15;100066.71;134142;1264;106454;-77
2024/02/13 12:52:19;;;;;;;12.80;6.00;;;;;;;7.29;68.76;100070.80;134121;1265;108704;-77
2024/02/13 12:55:25;;;;;;;21.00;10.30;;;;;;;7.21;68.99;100076.29;134134;1265;106759;-77
2024/02/13 12:58:32;;;;;;;9.50;5.50;;;;;;;7.19;69.25;100077.33;134154;1265;107031;-77
2024/02/13 13:01:44;;;;;;;9.90;5.00;;;;;;;7.20;68.99;100076.00;134147;1265;108634;-78
2024/02/13 13:04:52;;;;;;;7.50;4.40;;;;;;;7.22;68.82;100080.30;134126;1265;108807;-77
2024/02/13 13:07:59;;;;;;;8.20;4.70;;;;;;;7.21;68.44;100079.79;134138;1265;108766;-77
2024/02/13 13:11:05;;;;;;;7.80;4.30;;;;;;;7.26;69.34;100080.97;134138;1265;106492;-77
2024/02/13 13:14:12;;;;;;;11.60;7.50;;;;;;;7.31;68.10;100086.58;134121;1264;108761;-77
2024/02/13 13:17:21;;;;;;;8.50;5.40;;;;;;;7.37;68.78;100090.13;134144;1266;108967;-77
2024/02/13 13:20:28;;;;;;;10.10;6.90;;;;;;;7.39;67.74;100092.35;134117;1264;108835;-77
2024/02/13 13:23:33;;;;;;;8.50;4.80;;;;;;;7.43;68.05;100096.42;134180;1265;108763;-77
2024/02/13 13:26:40;;;;;;;18.60;10.60;;;;;;;7.40;66.63;100099.34;134145;1264;107139;-77
2024/02/13 13:29:46;;;;;;;12.20;6.50;;;;;;;7.39;68.15;100101.03;134127;1265;107309;-77
2024/02/13 13:32:52;;;;;;;8.60;4.60;;;;;;;7.48;68.45;100111.61;134145;1264;108616;-77
2024/02/13 13:35:59;;;;;;;9.30;5.90;;;;;;;7.48;67.23;100118.30;134121;1265;107713;-77
2024/02/13 13:39:08;;;;;;;9.20;5.30;;;;;;;7.41;66.52;100126.71;134140;1265;107796;-77
2024/02/13 13:42:14;;;;;;;9.60;4.80;;;;;;;7.35;66.85;100128.36;134149;1265;107815;-77
2024/02/13 13:45:20;;;;;;;11.30;5.90;;;;;;;7.35;67.44;100128.49;134144;1265;107616;-77
2024/02/13 13:48:27;;;;;;;6.80;4.40;;;;;;;7.41;68.20;100135.42;134125;1265;107600;-77
2024/02/13 13:51:33;;;;;;;10.00;5.10;;;;;;;7.37;66.78;100143.86;134102;1265;107439;-77
2024/02/13 13:54:38;;;;;;;7.10;4.50;;;;;;;7.32;66.44;100145.77;134173;1265;107120;-77
2024/02/13 13:57:44;;;;;;;8.70;4.50;;;;;;;7.26;66.64;100155.11;134129;1264;108647;-77
2024/02/13 14:00:50;;;;;;;9.30;5.00;;;;;;;7.20;66.83;100152.44;134120;1265;108827;-77
2024/02/13 14:03:56;;;;;;;8.50;4.70;;;;;;;7.16;66.23;100158.30;134100;1265;108780;-77
2024/02/13 14:07:01;;;;;;;7.70;5.10;;;;;;;7.14;66.69;100158.80;134113;1264;108543;-77
2024/02/13 14:10:12;;;;;;;10.80;5.40;;;;;;;7.13;67.16;100167.18;134108;1264;107699;-77
2024/02/13 14:13:18;;;;;;;9.00;5.40;;;;;;;7.13;67.34;100172.23;134134;1265;108768;-77
2024/02/13 14:16:25;;;;;;;10.60;6.50;;;;;;;7.07;67.56;100178.86;134115;1265;108685;-77